Time;durP1;ratioP1;P1;durP2;ratioP2;P2;SDS_P1;SDS_P2;PMS_P1;PMS_P2;Temp;Humidity;BMP_temperature;BMP_pressure;BME280_temperature;BME280_humidity;BME280_pressure;Samples;Min_cycle;Max_cycle;Signal;HPM_P1;HPM_P2
2022/03/11 00:00:32;;;;;;;33.63;12.27;;;;;;;7.17;49.42;101655.00;5049385;28;20040;-44
2022/03/11 00:02:57;;;;;;;30.15;12.38;;;;;;;7.20;49.50;101644.84;5049548;28;20063;-44
2022/03/11 00:05:23;;;;;;;37.40;13.10;;;;;;;7.16;49.76;101655.94;5049700;28;20036;-45
2022/03/11 00:07:48;;;;;;;34.60;13.18;;;;;;;7.10;49.58;101653.84;5049615;28;20095;-45
2022/03/11 00:10:14;;;;;;;35.85;13.13;;;;;;;7.09;49.47;101653.00;5049101;28;20021;-45
2022/03/11 00:12:39;;;;;;;32.80;12.68;;;;;;;7.03;49.57;101653.56;5048724;28;20017;-46
2022/03/11 00:15:05;;;;;;;35.13;12.73;;;;;;;7.07;49.62;101649.63;5049283;28;20426;-43
2022/03/11 00:17:31;;;;;;;35.78;13.68;;;;;;;7.03;49.92;101642.88;5049315;28;20537;-45
2022/03/11 00:19:56;;;;;;;37.95;13.23;;;;;;;6.99;50.44;101642.28;5050625;28;20060;-46
2022/03/11 00:22:21;;;;;;;32.05;12.73;;;;;;;6.93;49.80;101642.84;5053314;28;20039;-45
2022/03/11 00:24:47;;;;;;;38.35;13.50;;;;;;;6.88;50.04;101646.91;5053006;28;20056;-44
2022/03/11 00:27:12;;;;;;;32.33;11.65;;;;;;;6.82;50.19;101637.63;5053493;28;20459;-44
2022/03/11 00:29:37;;;;;;;41.35;13.95;;;;;;;6.78;50.03;101630.84;5053105;28;20399;-43
2022/03/11 00:32:03;;;;;;;38.28;13.85;;;;;;;6.80;50.01;101632.41;5068610;28;20578;-44
2022/03/11 00:34:28;;;;;;;31.95;12.65;;;;;;;6.74;50.29;101632.97;5071063;28;20078;-47
2022/03/11 00:36:53;;;;;;;32.00;12.57;;;;;;;6.75;50.05;101634.63;5056810;28;20032;-46
2022/03/11 00:39:19;;;;;;;36.63;13.15;;;;;;;6.74;50.09;101630.28;5055931;28;20460;-44
2022/03/11 00:41:44;;;;;;;36.60;12.93;;;;;;;6.77;50.16;101627.31;5064023;28;20101;-45
2022/03/11 00:44:10;;;;;;;31.42;12.05;;;;;;;6.68;50.64;101630.81;5070291;28;20112;-45
2022/03/11 00:46:35;;;;;;;36.28;13.10;;;;;;;6.65;50.60;101639.13;5053051;28;20028;-44
2022/03/11 00:49:01;;;;;;;33.90;13.07;;;;;;;6.63;50.55;101633.03;5053998;28;20021;-46
2022/03/11 00:51:26;;;;;;;32.35;11.73;;;;;;;6.59;50.55;101623.63;5052933;28;20033;-43
2022/03/11 00:53:51;;;;;;;34.30;13.10;;;;;;;6.52;50.72;101627.81;5061365;28;20111;-44
2022/03/11 00:56:16;;;;;;;32.85;12.45;;;;;;;6.55;50.62;101616.84;5070097;28;20029;-44
2022/03/11 00:58:42;;;;;;;35.05;12.07;;;;;;;6.43;50.94;101621.47;5067201;28;20048;-43
2022/03/11 01:01:07;;;;;;;33.60;13.48;;;;;;;6.43;51.11;101615.28;5052834;28;20387;-45
2022/03/11 01:03:32;;;;;;;34.83;12.60;;;;;;;6.44;50.97;101611.59;5053280;28;20090;-43
2022/03/11 01:05:58;;;;;;;38.97;12.50;;;;;;;6.36;51.45;101607.78;5058125;28;20103;-43
2022/03/11 01:08:23;;;;;;;34.47;13.25;;;;;;;6.35;51.11;101600.75;5057642;28;20534;-45
2022/03/11 01:10:48;;;;;;;31.80;12.55;;;;;;;6.33;51.45;101600.03;5070468;28;20617;-43
2022/03/11 01:13:14;;;;;;;31.95;13.70;;;;;;;6.33;51.20;101600.03;5054038;28;20090;-44
2022/03/11 01:15:39;;;;;;;42.30;13.85;;;;;;;6.23;51.44;101591.13;5065509;28;20475;-46
2022/03/11 01:18:04;;;;;;;31.40;13.10;;;;;;;6.26;51.56;101588.19;5052469;28;20043;-46
2022/03/11 01:20:30;;;;;;;36.42;13.55;;;;;;;6.27;51.36;101581.88;5052449;28;20017;-44
2022/03/11 01:22:55;;;;;;;33.42;12.30;;;;;;;6.22;51.50;101572.56;5068646;28;20025;-45
2022/03/11 01:25:20;;;;;;;47.47;13.57;;;;;;;6.24;51.53;101575.94;5060354;28;20369;-46
2022/03/11 01:27:46;;;;;;;35.38;12.70;;;;;;;6.14;51.58;101571.41;5053155;28;20398;-43
2022/03/11 01:30:16;;;;;;;36.47;12.55;;;;;;;6.14;51.83;101568.75;5054645;28;20035;-44
2022/03/11 01:32:42;;;;;;;34.30;12.27;;;;;;;6.16;51.81;101565.91;5067040;28;20036;-43
2022/03/11 01:35:08;;;;;;;42.33;13.55;;;;;;;6.21;51.39;101561.00;5056168;28;20112;-42
2022/03/11 01:37:33;;;;;;;34.35;12.73;;;;;;;6.19;51.75;101557.66;5057507;28;20111;-43
2022/03/11 01:39:59;;;;;;;34.67;14.25;;;;;;;6.19;51.74;101570.16;5051827;28;20029;-45
2022/03/11 01:42:24;;;;;;;37.38;13.13;;;;;;;6.09;52.38;101556.78;5064290;28;20079;-45
2022/03/11 01:44:52;;;;;;;38.85;14.15;;;;;;;6.01;51.99;101548.59;5051485;28;20039;-45
2022/03/11 01:47:17;;;;;;;39.75;13.90;;;;;;;6.01;52.28;101548.59;5050595;28;20028;-46
2022/03/11 01:49:44;;;;;;;43.00;14.77;;;;;;;5.95;52.68;101547.31;5055906;28;20029;-44
2022/03/11 01:52:11;;;;;;;35.50;13.93;;;;;;;5.93;52.49;101544.75;5069371;28;20028;-44
2022/03/11 01:54:39;;;;;;;39.88;13.73;;;;;;;5.87;52.92;101537.25;5071232;28;20033;-44
2022/03/11 01:57:05;;;;;;;32.60;13.88;;;;;;;5.84;52.93;101542.84;5065292;28;20482;-45
2022/03/11 01:59:30;;;;;;;43.13;13.07;;;;;;;5.85;52.93;101541.88;5062530;28;20028;-46
2022/03/11 02:01:56;;;;;;;35.50;13.02;;;;;;;5.85;53.21;101539.19;5057550;28;20201;-46
2022/03/11 02:04:21;;;;;;;36.28;14.82;;;;;;;5.82;53.10;101534.13;5065561;28;20036;-44
2022/03/11 02:06:48;;;;;;;33.17;12.95;;;;;;;5.80;53.08;101530.75;5071586;28;20044;-45
2022/03/11 02:09:13;;;;;;;44.10;14.63;;;;;;;5.72;53.67;101526.06;5057637;28;20025;-44
2022/03/11 02:11:39;;;;;;;36.17;13.57;;;;;;;5.74;53.23;101528.63;5063521;28;20021;-44
2022/03/11 02:14:05;;;;;;;36.28;14.15;;;;;;;5.69;53.24;101517.50;5055910;28;20025;-45
2022/03/11 02:16:32;;;;;;;31.98;12.60;;;;;;;5.77;53.62;101517.66;5059210;28;20032;-44
2022/03/11 02:18:58;;;;;;;37.45;14.20;;;;;;;5.68;53.34;101515.78;5064763;28;20048;-44
2022/03/11 02:21:26;;;;;;;41.22;15.35;;;;;;;5.72;53.68;101506.53;5071937;28;20111;-43
2022/03/11 02:23:53;;;;;;;37.55;13.32;;;;;;;5.60;53.83;101515.59;5067826;28;20477;-46
2022/03/11 02:26:20;;;;;;;43.03;14.90;;;;;;;5.56;53.96;101514.19;5064338;28;20051;-44
2022/03/11 02:28:46;;;;;;;34.47;13.38;;;;;;;5.53;53.65;101506.44;5053251;28;20047;-47
2022/03/11 02:31:12;;;;;;;38.40;14.13;;;;;;;5.49;54.04;101504.03;5053222;28;20025;-43
2022/03/11 02:33:37;;;;;;;48.60;15.85;;;;;;;5.55;54.02;101501.81;5034332;28;20025;-46
2022/03/11 02:36:03;;;;;;;42.67;15.07;;;;;;;5.49;53.92;101498.69;5053505;28;20493;-47
2022/03/11 02:38:29;;;;;;;42.60;14.20;;;;;;;5.48;54.08;101497.00;5066951;28;20033;-44
2022/03/11 02:40:55;;;;;;;40.35;14.68;;;;;;;5.55;53.90;101497.31;5054105;28;20056;-45
2022/03/11 02:43:20;;;;;;;41.15;14.35;;;;;;;5.53;53.33;101496.63;5068316;28;20110;-48
2022/03/11 02:45:45;;;;;;;38.50;14.18;;;;;;;5.50;54.06;101500.41;5057782;28;20021;-46
2022/03/11 02:48:11;;;;;;;34.40;14.20;;;;;;;5.54;53.69;101492.97;5060709;28;20017;-44
2022/03/11 02:50:36;;;;;;;43.53;14.48;;;;;;;5.55;53.96;101496.47;5053169;28;20111;-45
2022/03/11 02:53:01;;;;;;;41.55;14.40;;;;;;;5.53;53.23;101495.75;5058250;28;20456;-45
2022/03/11 02:55:27;;;;;;;43.92;15.23;;;;;;;5.51;53.38;101487.88;5044400;28;20605;-48
2022/03/11 02:57:52;;;;;;;41.95;13.90;;;;;;;5.50;53.45;101487.06;5063800;28;20028;-45
2022/03/11 03:00:18;;;;;;;40.53;14.88;;;;;;;5.54;53.75;101486.78;5053300;28;20048;-47
2022/03/11 03:02:43;;;;;;;43.42;15.43;;;;;;;5.46;53.79;101480.28;5070886;28;20107;-46
2022/03/11 03:05:09;;;;;;;41.38;15.90;;;;;;;5.39;53.77;101483.59;5054563;28;20032;-45
2022/03/11 03:07:34;;;;;;;38.22;14.18;;;;;;;5.38;53.99;101474.75;5072481;22;20077;-47
2022/03/11 03:10:00;;;;;;;47.35;14.73;;;;;;;5.38;54.00;101477.41;5050377;28;20036;-47
2022/03/11 03:12:26;;;;;;;42.75;15.52;;;;;;;5.37;54.36;101475.75;5050658;28;20032;-47
2022/03/11 03:14:51;;;;;;;39.45;15.32;;;;;;;5.34;54.15;101470.63;5050836;28;20090;-45
2022/03/11 03:17:21;;;;;;;35.55;14.23;;;;;;;5.34;54.45;101470.63;5050784;28;20052;-46
2022/03/11 03:19:47;;;;;;;36.63;14.85;;;;;;;5.35;54.81;101463.50;5050534;28;20480;-46
2022/03/11 03:22:12;;;;;;;40.83;15.52;;;;;;;5.34;54.91;101467.97;5050803;28;20055;-47
2022/03/11 03:24:37;;;;;;;47.45;15.55;;;;;;;5.31;54.40;101452.22;5050733;28;20028;-47
2022/03/11 03:27:03;;;;;;;39.47;16.05;;;;;;;5.23;54.74;101460.06;5050454;28;20094;-47
2022/03/11 03:29:29;;;;;;;39.33;15.02;;;;;;;5.14;54.97;101452.84;5050853;28;20064;-47
2022/03/11 03:31:57;;;;;;;42.92;15.18;;;;;;;5.13;55.33;101456.47;5048831;28;20516;-48
2022/03/11 03:34:29;;;;;;;39.80;14.70;;;;;;;5.06;55.63;101459.69;5050191;28;20471;-49
2022/03/11 03:36:55;;;;;;;40.58;15.60;;;;;;;5.00;55.89;101449.53;5045450;28;20041;-46
2022/03/11 03:39:21;;;;;;;37.33;14.65;;;;;;;5.06;55.88;101451.69;5033510;28;20438;-48
2022/03/11 03:41:46;;;;;;;38.83;15.05;;;;;;;5.05;56.10;101447.34;5049728;28;20029;-47
2022/03/11 03:44:11;;;;;;;38.45;14.85;;;;;;;5.06;55.29;101442.84;5050139;28;20028;-49
2022/03/11 03:46:37;;;;;;;41.28;15.10;;;;;;;5.03;55.40;101441.28;5050446;28;20363;-47
2022/03/11 03:49:02;;;;;;;35.58;14.88;;;;;;;4.99;55.91;101439.00;5050330;28;20040;-47
2022/03/11 03:51:27;;;;;;;39.22;15.13;;;;;;;4.96;55.36;101434.75;5050215;28;20731;-46
2022/03/11 03:53:53;;;;;;;38.50;15.32;;;;;;;4.94;55.45;101441.22;5052094;28;20514;-47
2022/03/11 03:56:18;;;;;;;45.17;15.07;;;;;;;4.88;55.57;101441.75;5054562;28;20479;-46
2022/03/11 03:58:43;;;;;;;37.80;14.63;;;;;;;4.84;55.80;101438.47;5054652;28;20414;-45
2022/03/11 04:01:09;;;;;;;42.40;15.35;;;;;;;4.83;56.12;101434.13;5054519;28;20025;-45
2022/03/11 04:03:35;;;;;;;38.25;14.90;;;;;;;4.83;55.57;101424.28;5054571;28;20036;-45
2022/03/11 04:06:00;;;;;;;36.10;14.10;;;;;;;4.86;56.01;101428.53;5054561;28;20078;-45
2022/03/11 04:08:27;;;;;;;41.55;15.38;;;;;;;4.81;55.69;101425.41;5034097;28;20156;-45
2022/03/11 04:10:52;;;;;;;39.38;14.35;;;;;;;4.82;55.83;101421.78;5048588;28;20025;-45
2022/03/11 04:13:17;;;;;;;40.60;15.18;;;;;;;4.81;55.83;101418.22;5052499;28;20395;-47
2022/03/11 04:15:42;;;;;;;38.28;14.90;;;;;;;4.77;56.33;101418.66;5052799;28;20032;-47
2022/03/11 04:18:08;;;;;;;37.75;15.07;;;;;;;4.77;56.54;101422.16;5051809;28;20430;-46
2022/03/11 04:20:33;;;;;;;39.20;14.77;;;;;;;4.72;56.75;101412.84;5052165;28;20067;-46
2022/03/11 04:22:58;;;;;;;40.40;15.27;;;;;;;4.70;56.54;101414.81;5053114;28;20030;-48
2022/03/11 04:25:25;;;;;;;43.03;14.85;;;;;;;4.65;56.36;101411.69;5053214;28;20036;-46
2022/03/11 04:27:50;;;;;;;42.58;15.82;;;;;;;4.66;56.67;101416.03;5053078;28;20264;-46
2022/03/11 04:30:16;;;;;;;36.47;14.93;;;;;;;4.56;57.29;101416.81;5052735;28;20033;-46
2022/03/11 04:32:41;;;;;;;34.30;14.85;;;;;;;4.53;57.03;101411.75;5049534;28;20079;-46
2022/03/11 04:35:07;;;;;;;38.40;14.57;;;;;;;4.43;57.41;101413.47;5052381;28;20029;-47
2022/03/11 04:37:32;;;;;;;40.08;15.10;;;;;;;4.51;57.41;101403.03;5050805;28;20040;-48
2022/03/11 04:39:58;;;;;;;42.50;14.80;;;;;;;4.53;57.27;101403.75;5067793;28;20120;-49
2022/03/11 04:42:24;;;;;;;38.67;14.15;;;;;;;4.41;57.22;101396.78;5052362;28;20377;-46
2022/03/11 04:44:49;;;;;;;36.42;14.32;;;;;;;4.33;57.84;101407.22;5067605;28;20048;-46
2022/03/11 04:47:15;;;;;;;41.10;15.25;;;;;;;4.28;58.30;101401.44;5052808;28;20439;-47
2022/03/11 04:49:40;;;;;;;39.33;14.60;;;;;;;4.25;58.78;101396.34;5052811;28;20651;-47
2022/03/11 04:52:06;;;;;;;31.00;14.20;;;;;;;4.24;58.51;101405.31;5036093;28;20025;-46
2022/03/11 04:54:31;;;;;;;36.97;14.48;;;;;;;4.23;58.51;101400.97;5050883;28;20032;-46
2022/03/11 04:56:57;;;;;;;41.80;15.45;;;;;;;4.20;58.09;101403.88;5052850;28;20033;-46
2022/03/11 04:59:22;;;;;;;43.05;16.85;;;;;;;4.24;58.38;101405.31;5052541;28;20228;-46
2022/03/11 05:01:47;;;;;;;33.72;14.38;;;;;;;4.29;58.05;101398.66;5052520;28;20060;-46
2022/03/11 05:04:13;;;;;;;47.42;15.80;;;;;;;4.29;57.49;101400.44;5041117;28;20148;-46
2022/03/11 05:06:38;;;;;;;34.45;14.40;;;;;;;4.29;57.22;101397.78;5052036;28;20084;-47
2022/03/11 05:09:03;;;;;;;39.42;14.07;;;;;;;4.26;57.32;101392.72;5052886;28;20495;-46
2022/03/11 05:11:29;;;;;;;29.67;13.15;;;;;;;4.35;56.79;101387.47;5042210;28;20119;-46
2022/03/11 05:13:54;;;;;;;34.38;14.27;;;;;;;4.29;57.35;101385.31;5051842;28;20043;-45
2022/03/11 05:16:20;;;;;;;33.60;14.05;;;;;;;4.35;56.78;101386.63;5052119;28;20033;-47
2022/03/11 05:18:45;;;;;;;34.03;13.27;;;;;;;4.42;56.46;101382.47;5052243;28;20025;-46
2022/03/11 05:21:10;;;;;;;45.25;15.73;;;;;;;4.38;56.65;101383.69;5050606;28;20035;-47
2022/03/11 05:23:36;;;;;;;39.60;13.68;;;;;;;4.40;56.44;101379.09;5043029;28;20017;-49
2022/03/11 05:26:02;;;;;;;42.78;14.90;;;;;;;4.39;56.32;101380.06;5052055;28;20056;-46
2022/03/11 05:28:28;;;;;;;37.40;13.93;;;;;;;4.46;56.07;101370.56;5052300;28;20036;-46
2022/03/11 05:30:54;;;;;;;33.72;13.75;;;;;;;4.44;55.44;101374.34;5051620;28;20037;-46
2022/03/11 05:33:20;;;;;;;34.83;13.55;;;;;;;4.47;55.51;101374.09;5051404;28;20530;-47
2022/03/11 05:35:45;;;;;;;43.67;13.73;;;;;;;4.50;55.66;101385.34;5051284;28;20059;-48
2022/03/11 05:38:11;;;;;;;35.88;14.25;;;;;;;4.53;55.31;101379.75;5046769;28;20115;-46
2022/03/11 05:40:36;;;;;;;38.42;13.18;;;;;;;4.39;55.57;101382.72;5051426;28;20024;-46
2022/03/11 05:43:02;;;;;;;32.22;14.05;;;;;;;4.39;55.83;101377.38;5051141;28;20047;-47
2022/03/11 05:45:27;;;;;;;38.15;13.88;;;;;;;4.37;56.00;101384.66;5041922;28;20041;-45
2022/03/11 05:47:52;;;;;;;38.13;13.88;;;;;;;4.32;55.59;101371.75;5044225;28;20039;-45
2022/03/11 05:50:18;;;;;;;38.05;13.52;;;;;;;4.35;55.88;101365.31;5049161;28;20420;-46
2022/03/11 05:52:44;;;;;;;39.65;13.38;;;;;;;4.31;56.11;101361.19;5050447;28;20511;-47
2022/03/11 05:55:10;;;;;;;33.63;13.88;;;;;;;4.28;56.49;101364.13;5049795;28;20499;-45
2022/03/11 05:57:36;;;;;;;43.05;14.10;;;;;;;4.25;56.34;101369.72;5050981;28;20112;-47
2022/03/11 06:00:03;;;;;;;36.30;15.00;;;;;;;4.24;56.60;101374.19;5034100;28;20060;-49
2022/03/11 06:02:28;;;;;;;34.05;13.60;;;;;;;4.26;55.92;101366.91;5040121;28;20033;-47
2022/03/11 06:04:54;;;;;;;34.17;14.80;;;;;;;4.28;55.84;101366.78;5050332;28;20117;-46
2022/03/11 06:07:20;;;;;;;30.63;12.85;;;;;;;4.29;56.14;101365.81;5051099;28;20048;-46
2022/03/11 06:09:46;;;;;;;40.63;13.45;;;;;;;4.31;55.72;101370.03;5046760;28;20028;-46
2022/03/11 06:12:11;;;;;;;37.08;13.45;;;;;;;4.31;56.25;101369.19;5051009;28;20032;-46
2022/03/11 06:14:36;;;;;;;29.52;13.23;;;;;;;4.22;56.36;101354.84;5051392;28;20334;-46
2022/03/11 06:17:02;;;;;;;40.72;14.88;;;;;;;4.22;56.62;101354.00;5049171;28;20033;-47
2022/03/11 06:19:27;;;;;;;31.02;13.60;;;;;;;4.21;56.12;101357.59;5051451;28;20028;-45
2022/03/11 06:21:55;;;;;;;35.22;13.65;;;;;;;4.18;56.55;101364.03;5050845;28;20036;-47
2022/03/11 06:24:20;;;;;;;35.38;13.27;;;;;;;4.28;56.26;101358.78;5051897;28;20120;-47
2022/03/11 06:26:45;;;;;;;34.15;14.20;;;;;;;4.31;56.30;101364.69;5051215;28;20071;-46
2022/03/11 06:29:12;;;;;;;34.60;14.43;;;;;;;4.30;56.04;101351.53;5051373;28;20451;-46
2022/03/11 06:31:38;;;;;;;45.65;13.63;;;;;;;4.31;56.55;101346.06;5052397;28;20327;-45
2022/03/11 06:34:03;;;;;;;36.40;13.52;;;;;;;4.38;55.72;101347.22;5068166;28;20069;-46
2022/03/11 06:36:29;;;;;;;38.13;13.82;;;;;;;4.38;56.01;101346.41;5052597;28;20040;-46
2022/03/11 06:38:55;;;;;;;35.65;12.88;;;;;;;4.46;55.92;101345.75;5051077;28;20036;-46
2022/03/11 06:41:21;;;;;;;32.83;13.70;;;;;;;4.52;55.40;101346.06;5052410;28;20477;-46
2022/03/11 06:43:46;;;;;;;32.63;13.95;;;;;;;4.77;54.50;101349.31;5051257;28;20147;-45
2022/03/11 06:46:12;;;;;;;29.00;13.48;;;;;;;5.21;53.22;101358.81;5050539;28;20029;-46
2022/03/11 06:48:37;;;;;;;34.03;13.55;;;;;;;5.52;52.82;101352.56;5050678;28;20029;-48
2022/03/11 06:51:04;;;;;;;32.30;12.90;;;;;;;5.83;52.09;101348.84;5050572;28;20476;-45
2022/03/11 06:53:31;;;;;;;35.15;14.45;;;;;;;6.15;50.70;101356.63;5050952;28;20378;-45
2022/03/11 06:55:56;;;;;;;38.75;13.98;;;;;;;6.35;50.10;101348.59;5048444;28;20031;-46
2022/03/11 06:58:22;;;;;;;36.47;14.48;;;;;;;6.76;49.27;101342.03;5050472;28;20496;-47
2022/03/11 07:00:47;;;;;;;33.53;14.13;;;;;;;7.07;47.77;101355.19;5049913;28;20486;-46
2022/03/11 07:03:12;;;;;;;38.15;15.18;;;;;;;6.96;47.93;101337.47;5050560;28;20068;-48
2022/03/11 07:05:38;;;;;;;40.85;13.98;;;;;;;7.25;47.61;101345.41;5048988;28;20024;-48
2022/03/11 07:08:03;;;;;;;42.13;15.73;;;;;;;7.37;47.28;101337.16;5049699;28;20488;-47
2022/03/11 07:10:28;;;;;;;38.00;14.88;;;;;;;7.34;46.90;101348.16;5050077;28;20029;-47
2022/03/11 07:12:54;;;;;;;43.15;15.75;;;;;;;7.18;47.45;101330.91;5050183;28;20025;-49
2022/03/11 07:15:19;;;;;;;37.15;14.48;;;;;;;7.47;46.32;101352.19;5050618;28;20492;-47
2022/03/11 07:17:46;;;;;;;36.40;14.77;;;;;;;7.45;46.70;101334.56;5050392;28;20533;-47
2022/03/11 07:20:11;;;;;;;39.60;14.90;;;;;;;7.61;46.31;101332.09;5050349;28;20435;-47
2022/03/11 07:22:37;;;;;;;46.55;14.52;;;;;;;7.49;46.63;101333.31;5050266;28;20064;-48
2022/03/11 07:25:03;;;;;;;44.75;15.20;;;;;;;7.93;45.98;101336.13;5050865;28;20041;-47
2022/03/11 07:27:29;;;;;;;46.30;15.60;;;;;;;8.09;45.09;101338.94;5048770;28;20446;-47
2022/03/11 07:29:56;;;;;;;43.55;14.82;;;;;;;8.03;44.79;101330.66;5049828;28;20025;-49
2022/03/11 07:32:22;;;;;;;36.35;15.02;;;;;;;8.43;44.11;101330.22;5050418;28;20025;-49
2022/03/11 07:34:47;;;;;;;40.80;16.20;;;;;;;8.52;44.04;101326.59;5049865;28;20032;-47
2022/03/11 07:37:13;;;;;;;46.47;15.13;;;;;;;9.04;42.78;101332.97;5049247;28;20020;-47
2022/03/11 07:39:42;;;;;;;48.10;17.08;;;;;;;9.18;42.36;101325.13;5048013;28;20056;-46
2022/03/11 07:42:08;;;;;;;36.28;15.10;;;;;;;10.23;40.54;101322.84;5050025;28;20402;-49
2022/03/11 07:44:33;;;;;;;39.97;15.57;;;;;;;10.73;39.25;101323.69;5045461;28;20035;-47
2022/03/11 07:46:59;;;;;;;45.63;17.25;;;;;;;10.74;38.76;101328.06;5047966;28;20033;-47
2022/03/11 07:49:24;;;;;;;42.42;16.30;;;;;;;10.75;37.87;101333.28;5045360;28;20072;-47
2022/03/11 07:51:50;;;;;;;44.45;17.05;;;;;;;10.89;38.17;101318.25;5049083;28;20510;-47
2022/03/11 07:54:15;;;;;;;37.75;14.75;;;;;;;11.31;37.10;101324.34;5049401;28;20176;-44
2022/03/11 07:56:41;;;;;;;43.33;16.25;;;;;;;11.79;36.28;101314.31;5048039;28;20124;-45
2022/03/11 07:59:06;;;;;;;42.90;16.20;;;;;;;12.21;35.85;101315.75;5049908;28;20065;-46
2022/03/11 08:01:32;;;;;;;50.85;17.45;;;;;;;12.64;34.95;101313.34;5049282;28;20032;-46
2022/03/11 08:03:57;;;;;;;42.63;15.85;;;;;;;12.60;35.11;101315.56;5048954;28;20024;-46
2022/03/11 08:06:23;;;;;;;43.55;16.35;;;;;;;12.29;34.97;101303.00;5049185;28;20029;-45
2022/03/11 08:08:49;;;;;;;43.17;15.77;;;;;;;12.16;34.90;101304.66;5049221;28;20037;-46
2022/03/11 08:11:14;;;;;;;35.42;16.13;;;;;;;13.17;33.59;101297.91;5049936;28;20033;-46
2022/03/11 08:13:40;;;;;;;46.70;16.25;;;;;;;14.25;32.24;101304.31;5049352;28;20028;-46
2022/03/11 08:16:07;;;;;;;34.00;15.23;;;;;;;13.96;31.89;101294.47;5049565;28;20037;-45
2022/03/11 08:18:33;;;;;;;36.20;14.68;;;;;;;13.80;32.25;101290.16;5049659;28;20075;-48
2022/03/11 08:20:58;;;;;;;37.75;15.32;;;;;;;13.39;32.65;101291.53;5049441;28;20025;-46
2022/03/11 08:23:23;;;;;;;35.28;14.70;;;;;;;14.03;31.98;101298.91;5047481;28;20496;-46
2022/03/11 08:25:49;;;;;;;33.22;15.68;;;;;;;13.05;33.08;101286.72;5042910;28;20036;-46
2022/03/11 08:28:15;;;;;;;35.58;14.68;;;;;;;13.18;33.18;101294.16;5049028;28;20036;-44
2022/03/11 08:30:41;;;;;;;39.38;14.73;;;;;;;12.99;33.76;101292.88;5048205;28;20111;-46
2022/03/11 08:33:07;;;;;;;37.75;13.43;;;;;;;12.83;34.09;101283.09;5049217;28;20029;-46
2022/03/11 08:35:33;;;;;;;33.05;14.82;;;;;;;13.69;32.54;101296.91;5064962;28;20074;-45
2022/03/11 08:37:58;;;;;;;37.67;14.63;;;;;;;13.66;33.01;101283.72;5047615;28;20017;-46
2022/03/11 08:40:26;;;;;;;35.25;14.27;;;;;;;13.71;32.88;101284.00;5051689;28;20021;-45
2022/03/11 08:42:52;;;;;;;39.63;14.57;;;;;;;13.58;32.88;101281.97;5052537;28;20021;-46
2022/03/11 08:45:21;;;;;;;32.17;14.38;;;;;;;13.65;32.85;101283.94;5053041;28;20106;-46
2022/03/11 08:47:46;;;;;;;31.55;14.95;;;;;;;14.11;32.20;101283.56;5047407;28;20028;-49
2022/03/11 08:50:12;;;;;;;33.55;13.90;;;;;;;14.37;32.44;101264.81;5033100;28;20396;-49
2022/03/11 08:52:37;;;;;;;38.80;14.48;;;;;;;14.87;31.52;101270.19;5036335;28;20106;-48
2022/03/11 08:55:03;;;;;;;31.88;14.38;;;;;;;14.31;32.39;101267.50;5053012;28;20040;-47
2022/03/11 08:57:29;;;;;;;36.33;14.90;;;;;;;14.22;32.35;101264.94;5052262;28;20036;-48
2022/03/11 08:59:54;;;;;;;29.40;13.93;;;;;;;15.01;31.78;101258.41;5052290;28;20344;-48
2022/03/11 09:02:22;;;;;;;31.67;15.25;;;;;;;15.68;30.40;101264.06;5052302;28;20032;-49
2022/03/11 09:04:47;;;;;;;43.15;14.95;;;;;;;16.39;29.92;101245.31;5050765;28;20040;-50
2022/03/11 09:07:13;;;;;;;30.05;14.70;;;;;;;16.31;29.60;101242.81;5050311;28;20036;-51
2022/03/11 09:09:38;;;;;;;39.58;14.07;;;;;;;17.54;28.48;101248.31;5034182;28;20108;-49
2022/03/11 09:12:04;;;;;;;40.72;16.48;;;;;;;16.96;28.40;101256.53;5052292;28;20040;-49
2022/03/11 09:14:30;;;;;;;29.92;15.00;;;;;;;16.72;28.66;101265.34;5051457;28;20039;-51
2022/03/11 09:16:56;;;;;;;32.03;13.75;;;;;;;15.32;30.54;101255.19;5051942;28;20072;-49
2022/03/11 09:19:21;;;;;;;28.50;13.90;;;;;;;14.71;31.59;101242.38;5051193;28;20068;-50
2022/03/11 09:21:47;;;;;;;33.55;15.10;;;;;;;15.42;31.39;101251.25;5050709;28;20063;-48
2022/03/11 09:24:12;;;;;;;33.20;13.85;;;;;;;15.35;31.51;101243.09;5052102;28;20025;-50
2022/03/11 09:26:38;;;;;;;43.55;15.27;;;;;;;14.35;32.83;101236.25;5051991;28;20361;-49
2022/03/11 09:29:04;;;;;;;34.03;13.35;;;;;;;14.49;32.76;101232.63;5051465;28;20424;-48
2022/03/11 09:31:29;;;;;;;35.25;14.10;;;;;;;14.68;32.62;101218.41;5051935;28;20135;-49
2022/03/11 09:33:54;;;;;;;34.50;13.90;;;;;;;14.34;33.68;101229.19;5051979;28;20104;-49
2022/03/11 09:36:20;;;;;;;32.22;14.45;;;;;;;14.36;33.79;101243.38;5051698;28;20025;-50
2022/03/11 09:38:46;;;;;;;27.45;13.63;;;;;;;13.87;34.43;101233.38;5051497;28;20044;-49
2022/03/11 09:41:12;;;;;;;34.67;13.40;;;;;;;14.01;34.48;101227.91;5066880;28;20549;-52
2022/03/11 09:43:38;;;;;;;32.45;13.88;;;;;;;13.85;34.95;101228.19;5051658;28;20033;-49
2022/03/11 09:46:04;;;;;;;38.15;13.57;;;;;;;13.45;35.07;101237.75;5051842;28;20158;-49
2022/03/11 09:48:30;;;;;;;41.50;14.82;;;;;;;13.33;35.63;101205.81;5050603;28;20178;-49
2022/03/11 09:50:58;;;;;;;33.63;14.55;;;;;;;13.80;35.21;101217.94;5048573;28;20025;-51
2022/03/11 09:53:24;;;;;;;40.40;14.07;;;;;;;13.70;35.30;101222.00;5051309;28;20502;-51
2022/03/11 09:55:49;;;;;;;38.60;14.50;;;;;;;13.76;35.58;101213.09;5050375;28;20028;-49
2022/03/11 09:58:15;;;;;;;36.78;14.00;;;;;;;13.84;35.56;101204.84;5050583;28;20462;-50
2022/03/11 10:00:40;;;;;;;35.25;13.90;;;;;;;13.87;36.13;101195.50;5051155;28;20029;-51
2022/03/11 10:03:05;;;;;;;38.75;15.30;;;;;;;13.79;35.54;101202.72;5051144;28;20451;-49
2022/03/11 10:05:50;;;;;;;30.92;13.55;;;;;;;13.80;36.51;101187.34;5050677;28;20037;-53
2022/03/11 10:08:37;;;;;;;34.85;13.45;;;;;;;14.20;35.87;101202.03;5050537;28;20038;-49
2022/03/11 10:11:21;;;;;;;41.92;14.95;;;;;;;13.69;36.44;101183.28;5050326;28;20102;-51
2022/03/11 10:13:47;;;;;;;35.13;14.07;;;;;;;13.36;37.58;101194.59;5050999;28;20388;-50
2022/03/11 10:16:23;;;;;;;29.58;13.38;;;;;;;13.20;38.19;101186.72;5051254;28;20037;-49
2022/03/11 10:18:57;;;;;;;28.60;13.48;;;;;;;13.93;36.99;101192.00;5051337;28;20029;-50
2022/03/11 10:21:50;;;;;;;31.88;14.27;;;;;;;14.04;36.95;101196.91;5049232;28;20475;-51
2022/03/11 10:24:20;;;;;;;36.38;15.15;;;;;;;14.41;36.41;101179.47;5047578;28;20182;-50
2022/03/11 10:26:46;;;;;;;35.03;13.13;;;;;;;14.26;36.61;101182.28;5066231;28;20443;-51
2022/03/11 10:29:23;;;;;;;34.40;13.88;;;;;;;14.28;36.24;101176.66;5050638;28;20036;-49
2022/03/11 10:31:54;;;;;;;32.65;13.93;;;;;;;13.61;37.65;101164.47;5050426;28;20365;-48
2022/03/11 10:34:26;;;;;;;40.38;13.50;;;;;;;13.45;38.05;101175.56;5050324;28;20029;-49
2022/03/11 10:36:54;;;;;;;51.38;14.20;;;;;;;13.92;37.84;101171.41;5051417;28;20021;-51
2022/03/11 10:39:27;;;;;;;34.13;13.63;;;;;;;13.57;38.02;101164.03;5045973;28;20036;-52
2022/03/11 10:42:18;;;;;;;41.38;14.80;;;;;;;13.88;37.67;101152.03;5050526;28;20030;-48
2022/03/11 10:45:13;;;;;;;43.95;14.18;;;;;;;14.04;37.74;101161.72;5038208;28;20056;-47
2022/03/11 10:47:40;;;;;;;35.00;13.82;;;;;;;13.94;37.96;101151.22;5031426;28;20071;-45
2022/03/11 10:50:12;;;;;;;35.10;13.07;;;;;;;13.91;38.18;101145.38;5050168;28;20041;-49
2022/03/11 10:52:46;;;;;;;32.10;13.48;;;;;;;13.96;38.62;101151.03;5050686;28;20171;-51
2022/03/11 10:55:23;;;;;;;32.47;14.07;;;;;;;13.30;39.43;101162.94;5048882;28;20113;-48
2022/03/11 10:57:52;;;;;;;32.60;13.98;;;;;;;13.42;39.22;101159.72;5030807;28;20171;-52
2022/03/11 11:00:24;;;;;;;36.30;13.32;;;;;;;13.64;39.84;101147.88;5050103;28;20395;-51
2022/03/11 11:02:55;;;;;;;42.60;14.98;;;;;;;13.64;39.36;101147.00;5049170;28;20029;-49
2022/03/11 11:05:22;;;;;;;40.13;14.50;;;;;;;13.64;39.37;101168.66;5049150;28;20033;-52
2022/03/11 11:07:48;;;;;;;31.75;13.88;;;;;;;14.03;38.78;101139.25;5049901;28;20102;-53
2022/03/11 11:10:19;;;;;;;45.45;15.10;;;;;;;14.22;38.88;101145.81;5050137;28;20037;-51